Aviation Digital Data Service (ADDS)

Output produced by METARs form (0405 UTC 26 June 2019)
found at http://www.aviationweather.gov/metar/data/
 
Forecast for: UTNU (URGENCH , UZ)
Text: TAF UTNU 252300Z 2600/2624 30008G18KT CAVOK
Forecast period: 0000 UTC 26 June 2019 to 0000 UTC 27 June 2019
Forecast type: FROM: standard forecast or significant change
Winds: from the WNW (300 degrees) at 9 MPH (8 knots; 4.1 m/s)
gusting to 21 MPH (18 knots; 9.3 m/s)
Visibility: 6 or more miles 10+ km)
Ceiling: unknown
Clouds: missing
Weather: NSW  (no significant weather)
Text: TEMPO 2608/2614 26012G22KT SCT050CB SCT100
Forecast period: 0800 to 1400 UTC 26 June 2019
Forecast type: TEMPORARY: The following changes expected for less than half the time period
Winds: from the W (260 degrees) at 14 MPH (12 knots; 6.2 m/s)
gusting to 25 MPH (22 knots; 11.3 m/s)
Visibility: missing
Ceiling: at least 12,000 feet AGL
Clouds: scattered clouds at 5000 feet AGL
scattered clouds at 10000 feet AGL
Weather: no significant weather forecast for this period